Terminal Aerodrome Forecast
Issued by NWS

Home | Current Version | Previous Version | Text Only | Print | Product List | Glossary On
Versions: 1 2 3 4 5 6 7 8 9 10 11 12 13 14 15 16 17 18
000
FTUS41 KBOX 230537
TAFBAF
TAF
KBAF 230537Z 2306/2406 19005KT 3SM BR OVC008
     FM230800 19003KT 3SM BR BKN015
     FM230900 00000KT 5SM BR BKN025
     FM231100 26003KT 6SM BR BKN035
     FM231200 29004KT P6SM SCT060
     FM231300 32009KT P6SM SCT090=

USA.gov is the U.S. government's official web portal to all federal, state and local government web resources and services.